Главная страница
METAR-TAF:

METAR-TAF

Аэропорты :

Easton, Мэриленд, США

широта: 38-48N, долгота: 076-04W, высота над уровнем моря: 22 м

Текущие метеонаблюдения

Эта сводка был подготовлена 59 минут назад, в 23:50 UTC
Ветер 5 Узел от восточно-юго-восточный
Температура 24°C
Влажность 78%
Давление 1020 hPa
Видимость: 16.1 км
Отдельные облака на высоте 1900 фута
Рассеянная облачность на высоте 4000 фута

METAR: KESN 202350Z 11005KT 10SM SCT019 BKN040 24/20 A3012

Время: 20:49 (00:49 UTC)


TAF: отсутствует

Метеонаблюдения и прогнозы для более 4000 аэропортов (сводки METAR и TAF).

Имеющиеся станции представлены на карте желтыми и красными точками.

Чтобы увидеть название станции, наведите на нее мышь.

Затем щелкните, чтобы увидеть метеонаблюдения и метеопрогнозы.

Управление картой: чтобы увеличить масштаб, щелкните зеленые кнопки с черным крестиком; чтобы уменьшить масштаб, щелкните зеленую кнопку с тире; для просмотра соседних карт щелкайте зеленые стрелки.


METAR-TAF: